Yvonne K. — PBLX — position and weather

sailwx.info

Track history (hours):
 
Tides and Currents Weather Stations Pressure Air Temp Water Temp Dewpoint Dewpoint Depression Visibility Wind Speed Wind Dir Waves Ship Positions

Yvonne K.

Last reported at 2016-Sep-29 16:33 UTC. Time now 2016-Sep-29 18:45 UTC.
Position N 39°40' W 010°05'.

Length 90 m; draft 5.5 m.

Type: Cargo ship. MMSI: 244948000.

Date/timePositionNaut miles runAvg speedWind from/ knotsBaromVisibWave heightAir tempDewpointWater temp
2016-Sep-29 16:33N 39°40' W 010°05'  
2016-Sep-26 02:33N 50°16' W 002°56'7 7.2
2016-Sep-26 01:33N 50°20' W 002°47'8 7.8
2016-Sep-26 00:33N 50°25' W 002°38'74 2.6
2016-Sep-24 19:33N 50°24' W 000°42'8 7.8
2016-Sep-24 18:32N 50°26' W 000°30'6 6.6
2016-Sep-24 17:33N 50°28' W 000°20'6 6.5
2016-Sep-24 16:33N 50°30' W 000°10'15 7.5
2016-Sep-24 14:33N 50°35' E 000°12'43 8.5
2016-Sep-24 09:33N 50°56' E 001°11'48 7.9
2016-Sep-24 03:33N 51°30' E 002°03'1110.0
2016-Sep-24 02:26N 51°38' E 002°15'174 8.7
2016-Sep-23 06:33N 53°41' E 005°39'19 9.5
2016-Sep-23 04:33N 53°47' E 006°09'9 9.4
2016-Sep-23 03:33N 53°50' E 006°25'9 8.9
2016-Sep-23 02:33N 53°52' E 006°39'8 8.3
2016-Sep-23 01:33N 53°54' E 006°53'8 7.9
2016-Sep-23 00:33N 53°56' E 007°06'8 7.8
2016-Sep-22 23:33N 53°58' E 007°19'27 9.1
2016-Sep-22 20:33N 54°01' E 008°05'77 4.8
2016-Sep-22 04:33N 54°23' E 010°11'9 8.9
2016-Sep-22 03:33N 54°30' E 010°20'28 9.4
2016-Sep-22 00:33N 54°36' E 011°07'1010.0
2016-Sep-21 23:33N 54°33' E 011°23'1010.0
2016-Sep-21 22:33N 54°29' E 011°39'25 8.4
2016-Sep-21 19:33N 54°34' E 012°21'92 9.0
2016-Sep-21 09:20N 54°41' E 015°01'137 8.7
2016-Sep-20 17:33N 54°42' E 018°58'21 6.8
2016-Sep-20 14:31N 54°24' E 018°40'0 0.0
2016-Sep-20 13:31N 54°24' E 018°40'0 0.0
2016-Sep-20 10:31N 54°24' E 018°40'0 0.0
2016-Sep-20 08:31N 54°24' E 018°40'0 0.0
2016-Sep-20 07:31N 54°24' E 018°40'0 0.0
2016-Sep-20 06:31N 54°24' E 018°40'0 0.0
2016-Sep-20 02:31N 54°24' E 018°40'0 0.0
2016-Sep-19 23:31N 54°24' E 018°40'0 0.0
2016-Sep-19 19:31N 54°24' E 018°40'0 0.0
2016-Sep-19 18:31N 54°24' E 018°40'  
Track history (hours):
 
Tides and Currents Weather Stations Pressure Air Temp Water Temp Dewpoint Dewpoint Depression Visibility Wind Speed Wind Dir Waves Ship Positions

Yvonne K.

Last reported at 2016-Sep-29 16:33 UTC. Time now 2016-Sep-29 18:45 UTC.
Position N 39°40' W 010°05'.

Length 90 m; draft 5.5 m.

Type: Cargo ship. MMSI: 244948000.

Date/timePositionNaut miles runAvg speedWind from/ knotsBaromVisibWave heightAir tempDewpointWater temp
2016-Sep-29 16:33N 39°40' W 010°05'  
2016-Sep-26 02:33N 50°16' W 002°56'7 7.2
2016-Sep-26 01:33N 50°20' W 002°47'8 7.8
2016-Sep-26 00:33N 50°25' W 002°38'74 2.6
2016-Sep-24 19:33N 50°24' W 000°42'8 7.8
2016-Sep-24 18:32N 50°26' W 000°30'6 6.6
2016-Sep-24 17:33N 50°28' W 000°20'6 6.5
2016-Sep-24 16:33N 50°30' W 000°10'15 7.5
2016-Sep-24 14:33N 50°35' E 000°12'43 8.5
2016-Sep-24 09:33N 50°56' E 001°11'48 7.9
2016-Sep-24 03:33N 51°30' E 002°03'1110.0
2016-Sep-24 02:26N 51°38' E 002°15'174 8.7
2016-Sep-23 06:33N 53°41' E 005°39'19 9.5
2016-Sep-23 04:33N 53°47' E 006°09'9 9.4
2016-Sep-23 03:33N 53°50' E 006°25'9 8.9
2016-Sep-23 02:33N 53°52' E 006°39'8 8.3
2016-Sep-23 01:33N 53°54' E 006°53'8 7.9
2016-Sep-23 00:33N 53°56' E 007°06'8 7.8
2016-Sep-22 23:33N 53°58' E 007°19'27 9.1
2016-Sep-22 20:33N 54°01' E 008°05'77 4.8
2016-Sep-22 04:33N 54°23' E 010°11'9 8.9
2016-Sep-22 03:33N 54°30' E 010°20'28 9.4
2016-Sep-22 00:33N 54°36' E 011°07'1010.0
2016-Sep-21 23:33N 54°33' E 011°23'1010.0
2016-Sep-21 22:33N 54°29' E 011°39'25 8.4
2016-Sep-21 19:33N 54°34' E 012°21'92 9.0
2016-Sep-21 09:20N 54°41' E 015°01'137 8.7
2016-Sep-20 17:33N 54°42' E 018°58'21 6.8
2016-Sep-20 14:31N 54°24' E 018°40'0 0.0
2016-Sep-20 13:31N 54°24' E 018°40'0 0.0
2016-Sep-20 10:31N 54°24' E 018°40'0 0.0
2016-Sep-20 08:31N 54°24' E 018°40'0 0.0
2016-Sep-20 07:31N 54°24' E 018°40'0 0.0
2016-Sep-20 06:31N 54°24' E 018°40'0 0.0
2016-Sep-20 02:31N 54°24' E 018°40'0 0.0
2016-Sep-19 23:31N 54°24' E 018°40'0 0.0
2016-Sep-19 19:31N 54°24' E 018°40'0 0.0
2016-Sep-19 18:31N 54°24' E 018°40'  

Dump ship's entire track history